Aviation Digital Data Service (ADDS)

Output produced by METARs form (0200 UTC 23 November 2014)
found at http://aviationweather.gov/adds/metars/
 
KEWR 222333Z 2300/2406 23012KT P6SM SCT050 BKN100 WS020/26040KT 
     FM230600 23007KT P6SM BKN100 WS020/26040KT 
     FM231500 22010G15KT P6SM BKN100 
     FM231800 22008KT P6SM SCT060 BKN100 
     FM232300 18007KT P6SM SCT008 BKN100